Lucien, Mississippi
Current Conditions -  °F | °C
As of 1:53 PM on Thursday 18 Dec 2014 (Local Time) from KMCB Reporting Station
Light Rain Light Rain  
Wind Chill: 55°   Ceiling: 2400
Heat Index: 55°   Visibility: 7mi
Dew Point: 48°   Wind: 8mph
Humidity: 77%   Direction: 360°N
Pressure: 30.12"   Gusts: NA
Location:  31.5898°N, 90.4722°W
Report Text: KMCB 181953Z AUTO 36007KT 7SM -RA BKN024 OVC032 13/09 A3012 RMK AO2 RAB51 SLP199 P0000 T01280089
Loading
Personal Weather Stations






























Interactive Weather Map New forecast layout! Learn more

10-Day Weather Forecast

Advertisements
Track Severe Weather on mobile